sensor_id;sensor_type;location;lat;lon;timestamp;temperature;humidity
60309;DHT22;50313;52.894;6.492;2023-09-19T00:00:46;13.90;99.90
60309;DHT22;50313;52.894;6.492;2023-09-19T00:03:15;13.90;99.90
60309;DHT22;50313;52.894;6.492;2023-09-19T00:05:41;13.80;99.90
60309;DHT22;50313;52.894;6.492;2023-09-19T00:08:10;13.80;99.90
60309;DHT22;50313;52.894;6.492;2023-09-19T00:10:36;13.80;99.90
60309;DHT22;50313;52.894;6.492;2023-09-19T00:13:04;13.70;99.90
60309;DHT22;50313;52.894;6.492;2023-09-19T00:15:41;13.60;99.90
60309;DHT22;50313;52.894;6.492;2023-09-19T00:18:08;13.60;99.90
60309;DHT22;50313;52.894;6.492;2023-09-19T00:20:38;13.60;99.90
60309;DHT22;50313;52.894;6.492;2023-09-19T00:23:05;13.50;99.90
60309;DHT22;50313;52.894;6.492;2023-09-19T00:25:35;13.50;99.90
60309;DHT22;50313;52.894;6.492;2023-09-19T00:28:01;13.50;99.90
60309;DHT22;50313;52.894;6.492;2023-09-19T00:30:27;13.40;99.90
60309;DHT22;50313;52.894;6.492;2023-09-19T00:32:53;13.50;99.90
60309;DHT22;50313;52.894;6.492;2023-09-19T00:35:23;13.40;99.90
60309;DHT22;50313;52.894;6.492;2023-09-19T00:37:53;13.40;99.90
60309;DHT22;50313;52.894;6.492;2023-09-19T00:40:19;13.30;99.90
60309;DHT22;50313;52.894;6.492;2023-09-19T00:42:45;13.30;99.90
60309;DHT22;50313;52.894;6.492;2023-09-19T00:45:13;13.30;99.90
60309;DHT22;50313;52.894;6.492;2023-09-19T00:47:45;13.20;99.90
60309;DHT22;50313;52.894;6.492;2023-09-19T00:50:12;13.20;99.90
60309;DHT22;50313;52.894;6.492;2023-09-19T00:52:40;13.20;99.90
60309;DHT22;50313;52.894;6.492;2023-09-19T00:55:09;13.20;99.90
60309;DHT22;50313;52.894;6.492;2023-09-19T00:57:36;13.10;99.90
60309;DHT22;50313;52.894;6.492;2023-09-19T01:00:05;13.10;99.90
60309;DHT22;50313;52.894;6.492;2023-09-19T01:02:33;13.10;99.90
60309;DHT22;50313;52.894;6.492;2023-09-19T01:04:59;13.10;99.90
60309;DHT22;50313;52.894;6.492;2023-09-19T01:07:31;13.20;99.90
60309;DHT22;50313;52.894;6.492;2023-09-19T01:09:57;13.20;99.90
60309;DHT22;50313;52.894;6.492;2023-09-19T01:21:05;13.30;99.90
60309;DHT22;50313;52.894;6.492;2023-09-19T01:31:59;13.20;99.90
60309;DHT22;50313;52.894;6.492;2023-09-19T01:34:53;13.10;99.90
60309;DHT22;50313;52.894;6.492;2023-09-19T01:37:21;13.10;99.90
60309;DHT22;50313;52.894;6.492;2023-09-19T01:39:58;13.10;99.90
60309;DHT22;50313;52.894;6.492;2023-09-19T01:45:43;13.10;99.90
60309;DHT22;50313;52.894;6.492;2023-09-19T01:53:24;12.90;99.90
60309;DHT22;50313;52.894;6.492;2023-09-19T01:55:54;13.00;99.90
60309;DHT22;50313;52.894;6.492;2023-09-19T01:58:21;12.90;99.90
60309;DHT22;50313;52.894;6.492;2023-09-19T02:00:51;12.90;99.90
60309;DHT22;50313;52.894;6.492;2023-09-19T02:03:20;12.90;99.90
60309;DHT22;50313;52.894;6.492;2023-09-19T02:05:49;12.80;99.90
60309;DHT22;50313;52.894;6.492;2023-09-19T02:08:18;12.90;99.90
60309;DHT22;50313;52.894;6.492;2023-09-19T02:10:45;12.90;99.90
60309;DHT22;50313;52.894;6.492;2023-09-19T02:13:18;12.80;99.90
60309;DHT22;50313;52.894;6.492;2023-09-19T02:15:47;12.80;99.90
60309;DHT22;50313;52.894;6.492;2023-09-19T02:18:13;12.80;99.90
60309;DHT22;50313;52.894;6.492;2023-09-19T02:20:40;12.70;99.90
60309;DHT22;50313;52.894;6.492;2023-09-19T02:23:06;12.70;99.90
60309;DHT22;50313;52.894;6.492;2023-09-19T02:25:33;12.60;99.90
60309;DHT22;50313;52.894;6.492;2023-09-19T02:27:59;12.60;99.90
60309;DHT22;50313;52.894;6.492;2023-09-19T02:30:26;12.60;99.90
60309;DHT22;50313;52.894;6.492;2023-09-19T02:32:52;12.60;99.90
60309;DHT22;50313;52.894;6.492;2023-09-19T02:35:18;12.60;99.90
60309;DHT22;50313;52.894;6.492;2023-09-19T02:37:47;12.50;99.90
60309;DHT22;50313;52.894;6.492;2023-09-19T02:40:13;12.50;99.90
60309;DHT22;50313;52.894;6.492;2023-09-19T02:42:53;12.50;99.90
60309;DHT22;50313;52.894;6.492;2023-09-19T02:45:20;12.40;99.90
60309;DHT22;50313;52.894;6.492;2023-09-19T02:47:46;12.50;99.90
60309;DHT22;50313;52.894;6.492;2023-09-19T02:50:12;12.50;99.90
60309;DHT22;50313;52.894;6.492;2023-09-19T02:52:42;12.40;99.90
60309;DHT22;50313;52.894;6.492;2023-09-19T02:55:14;12.50;99.90
60309;DHT22;50313;52.894;6.492;2023-09-19T02:57:50;12.40;99.90
60309;DHT22;50313;52.894;6.492;2023-09-19T03:00:17;12.40;99.90
60309;DHT22;50313;52.894;6.492;2023-09-19T03:02:47;12.40;99.90
60309;DHT22;50313;52.894;6.492;2023-09-19T03:05:13;12.50;99.90
60309;DHT22;50313;52.894;6.492;2023-09-19T03:07:39;12.60;99.90
60309;DHT22;50313;52.894;6.492;2023-09-19T03:10:08;12.60;99.90
60309;DHT22;50313;52.894;6.492;2023-09-19T03:12:35;12.60;99.90
60309;DHT22;50313;52.894;6.492;2023-09-19T03:15:02;12.60;99.90
60309;DHT22;50313;52.894;6.492;2023-09-19T03:17:28;12.60;99.90
60309;DHT22;50313;52.894;6.492;2023-09-19T03:19:54;12.70;99.90
60309;DHT22;50313;52.894;6.492;2023-09-19T03:22:19;12.60;99.90
60309;DHT22;50313;52.894;6.492;2023-09-19T03:24:46;12.70;99.90
60309;DHT22;50313;52.894;6.492;2023-09-19T03:27:12;12.70;99.90
60309;DHT22;50313;52.894;6.492;2023-09-19T03:29:42;12.70;99.90
60309;DHT22;50313;52.894;6.492;2023-09-19T03:32:08;12.70;99.90
60309;DHT22;50313;52.894;6.492;2023-09-19T03:34:37;12.70;99.90
60309;DHT22;50313;52.894;6.492;2023-09-19T03:37:09;12.70;99.90
60309;DHT22;50313;52.894;6.492;2023-09-19T03:39:35;12.70;99.90
60309;DHT22;50313;52.894;6.492;2023-09-19T03:42:02;12.80;99.90
60309;DHT22;50313;52.894;6.492;2023-09-19T03:44:32;12.80;99.90
60309;DHT22;50313;52.894;6.492;2023-09-19T03:46:58;12.80;99.90
60309;DHT22;50313;52.894;6.492;2023-09-19T03:49:24;12.80;99.90
60309;DHT22;50313;52.894;6.492;2023-09-19T03:51:50;12.70;99.90
60309;DHT22;50313;52.894;6.492;2023-09-19T03:54:16;12.70;99.90
60309;DHT22;50313;52.894;6.492;2023-09-19T03:56:42;12.80;99.90
60309;DHT22;50313;52.894;6.492;2023-09-19T03:59:09;12.70;99.90
60309;DHT22;50313;52.894;6.492;2023-09-19T04:01:35;12.60;99.90
60309;DHT22;50313;52.894;6.492;2023-09-19T04:04:01;12.60;99.90
60309;DHT22;50313;52.894;6.492;2023-09-19T04:06:36;12.60;99.90
60309;DHT22;50313;52.894;6.492;2023-09-19T04:09:03;12.60;99.90
60309;DHT22;50313;52.894;6.492;2023-09-19T04:11:29;12.70;99.90
60309;DHT22;50313;52.894;6.492;2023-09-19T04:13:56;12.70;99.90
60309;DHT22;50313;52.894;6.492;2023-09-19T04:16:22;12.70;99.90
60309;DHT22;50313;52.894;6.492;2023-09-19T04:18:48;12.70;99.90
60309;DHT22;50313;52.894;6.492;2023-09-19T04:21:14;12.80;99.90
60309;DHT22;50313;52.894;6.492;2023-09-19T04:23:40;12.80;99.90
60309;DHT22;50313;52.894;6.492;2023-09-19T04:26:05;12.90;99.90
60309;DHT22;50313;52.894;6.492;2023-09-19T04:28:31;12.90;99.90
60309;DHT22;50313;52.894;6.492;2023-09-19T04:31:00;13.00;99.90
60309;DHT22;50313;52.894;6.492;2023-09-19T04:33:26;13.10;99.90
60309;DHT22;50313;52.894;6.492;2023-09-19T04:35:52;13.00;99.90
60309;DHT22;50313;52.894;6.492;2023-09-19T04:38:18;13.10;99.90
60309;DHT22;50313;52.894;6.492;2023-09-19T04:40:45;13.20;99.90
60309;DHT22;50313;52.894;6.492;2023-09-19T04:43:11;13.30;99.90
60309;DHT22;50313;52.894;6.492;2023-09-19T04:45:39;13.30;99.90
60309;DHT22;50313;52.894;6.492;2023-09-19T04:48:05;13.40;99.90
60309;DHT22;50313;52.894;6.492;2023-09-19T04:50:34;13.30;99.90
60309;DHT22;50313;52.894;6.492;2023-09-19T04:53:00;13.30;99.90
60309;DHT22;50313;52.894;6.492;2023-09-19T04:55:26;13.30;99.90
60309;DHT22;50313;52.894;6.492;2023-09-19T04:57:53;13.30;99.90
60309;DHT22;50313;52.894;6.492;2023-09-19T05:00:20;13.30;99.90
60309;DHT22;50313;52.894;6.492;2023-09-19T05:02:54;13.30;99.90
60309;DHT22;50313;52.894;6.492;2023-09-19T05:05:20;13.30;99.90
60309;DHT22;50313;52.894;6.492;2023-09-19T05:07:47;13.30;99.90
60309;DHT22;50313;52.894;6.492;2023-09-19T05:10:13;13.30;99.90
60309;DHT22;50313;52.894;6.492;2023-09-19T05:12:40;13.30;99.90
60309;DHT22;50313;52.894;6.492;2023-09-19T05:15:07;13.30;99.90
60309;DHT22;50313;52.894;6.492;2023-09-19T05:17:33;13.30;99.90
60309;DHT22;50313;52.894;6.492;2023-09-19T05:20:00;13.30;99.90
60309;DHT22;50313;52.894;6.492;2023-09-19T05:22:31;13.20;99.90
60309;DHT22;50313;52.894;6.492;2023-09-19T05:24:58;13.20;99.90
60309;DHT22;50313;52.894;6.492;2023-09-19T05:27:24;13.30;99.90
60309;DHT22;50313;52.894;6.492;2023-09-19T05:29:50;13.20;99.90
60309;DHT22;50313;52.894;6.492;2023-09-19T05:32:18;13.20;99.90
60309;DHT22;50313;52.894;6.492;2023-09-19T05:34:45;13.20;99.90
60309;DHT22;50313;52.894;6.492;2023-09-19T05:37:13;13.20;99.90
60309;DHT22;50313;52.894;6.492;2023-09-19T05:39:41;13.20;99.90
60309;DHT22;50313;52.894;6.492;2023-09-19T05:42:07;13.20;99.90
60309;DHT22;50313;52.894;6.492;2023-09-19T05:44:33;13.20;99.90
60309;DHT22;50313;52.894;6.492;2023-09-19T05:46:59;13.10;99.90
60309;DHT22;50313;52.894;6.492;2023-09-19T05:49:25;13.10;99.90
60309;DHT22;50313;52.894;6.492;2023-09-19T05:51:51;13.10;99.90
60309;DHT22;50313;52.894;6.492;2023-09-19T05:54:21;13.00;99.90
60309;DHT22;50313;52.894;6.492;2023-09-19T05:56:47;13.00;99.90
60309;DHT22;50313;52.894;6.492;2023-09-19T05:59:14;13.00;99.90
60309;DHT22;50313;52.894;6.492;2023-09-19T06:01:42;13.00;99.90
60309;DHT22;50313;52.894;6.492;2023-09-19T06:04:08;13.00;99.90
60309;DHT22;50313;52.894;6.492;2023-09-19T06:06:34;12.90;99.90
60309;DHT22;50313;52.894;6.492;2023-09-19T06:09:06;12.90;99.90
60309;DHT22;50313;52.894;6.492;2023-09-19T06:11:34;13.00;99.90
60309;DHT22;50313;52.894;6.492;2023-09-19T06:14:04;13.00;99.90
60309;DHT22;50313;52.894;6.492;2023-09-19T06:16:30;13.00;99.90
60309;DHT22;50313;52.894;6.492;2023-09-19T06:18:57;13.00;99.90
60309;DHT22;50313;52.894;6.492;2023-09-19T06:21:24;13.00;99.90
60309;DHT22;50313;52.894;6.492;2023-09-19T06:23:50;13.10;99.90
60309;DHT22;50313;52.894;6.492;2023-09-19T06:26:15;13.10;99.90
60309;DHT22;50313;52.894;6.492;2023-09-19T06:28:41;13.10;99.90
60309;DHT22;50313;52.894;6.492;2023-09-19T06:31:08;13.10;99.90
60309;DHT22;50313;52.894;6.492;2023-09-19T06:33:38;13.10;99.90
60309;DHT22;50313;52.894;6.492;2023-09-19T06:36:05;13.20;99.90
60309;DHT22;50313;52.894;6.492;2023-09-19T06:38:31;13.10;99.90
60309;DHT22;50313;52.894;6.492;2023-09-19T06:41:00;13.10;99.90
60309;DHT22;50313;52.894;6.492;2023-09-19T06:43:27;13.00;99.90
60309;DHT22;50313;52.894;6.492;2023-09-19T06:45:54;13.00;99.90
60309;DHT22;50313;52.894;6.492;2023-09-19T06:48:20;13.00;99.90
60309;DHT22;50313;52.894;6.492;2023-09-19T06:50:46;13.00;99.90
60309;DHT22;50313;52.894;6.492;2023-09-19T06:53:13;13.00;99.90
60309;DHT22;50313;52.894;6.492;2023-09-19T06:55:39;13.10;99.90
60309;DHT22;50313;52.894;6.492;2023-09-19T06:58:05;13.10;99.90
60309;DHT22;50313;52.894;6.492;2023-09-19T07:00:31;13.20;99.90
60309;DHT22;50313;52.894;6.492;2023-09-19T07:03:07;13.40;99.90
60309;DHT22;50313;52.894;6.492;2023-09-19T07:05:40;13.50;99.90
60309;DHT22;50313;52.894;6.492;2023-09-19T07:08:07;13.70;99.90
60309;DHT22;50313;52.894;6.492;2023-09-19T07:10:33;13.90;99.90
60309;DHT22;50313;52.894;6.492;2023-09-19T07:13:00;14.00;99.90
60309;DHT22;50313;52.894;6.492;2023-09-19T07:15:26;14.10;99.90
60309;DHT22;50313;52.894;6.492;2023-09-19T07:17:53;14.20;99.90
60309;DHT22;50313;52.894;6.492;2023-09-19T07:20:20;14.20;99.90
60309;DHT22;50313;52.894;6.492;2023-09-19T07:22:45;14.20;99.90
60309;DHT22;50313;52.894;6.492;2023-09-19T07:25:12;14.20;99.90
60309;DHT22;50313;52.894;6.492;2023-09-19T07:27:41;14.20;99.90
60309;DHT22;50313;52.894;6.492;2023-09-19T07:30:07;14.30;99.90
60309;DHT22;50313;52.894;6.492;2023-09-19T07:32:34;14.30;99.90
60309;DHT22;50313;52.894;6.492;2023-09-19T07:35:02;14.20;99.90
60309;DHT22;50313;52.894;6.492;2023-09-19T07:37:32;14.30;99.90
60309;DHT22;50313;52.894;6.492;2023-09-19T07:40:07;14.20;99.90
60309;DHT22;50313;52.894;6.492;2023-09-19T07:42:35;14.20;99.90
60309;DHT22;50313;52.894;6.492;2023-09-19T07:45:02;14.20;99.90
60309;DHT22;50313;52.894;6.492;2023-09-19T07:47:29;14.20;99.90
60309;DHT22;50313;52.894;6.492;2023-09-19T07:49:55;14.30;99.90
60309;DHT22;50313;52.894;6.492;2023-09-19T07:52:21;14.30;99.90
60309;DHT22;50313;52.894;6.492;2023-09-19T07:54:48;14.50;99.90
60309;DHT22;50313;52.894;6.492;2023-09-19T07:57:15;14.50;99.90
60309;DHT22;50313;52.894;6.492;2023-09-19T07:59:41;14.60;99.90
60309;DHT22;50313;52.894;6.492;2023-09-19T08:02:10;14.70;99.90
60309;DHT22;50313;52.894;6.492;2023-09-19T08:04:44;14.70;99.90
60309;DHT22;50313;52.894;6.492;2023-09-19T08:07:14;14.80;99.90
60309;DHT22;50313;52.894;6.492;2023-09-19T08:09:40;14.80;99.90
60309;DHT22;50313;52.894;6.492;2023-09-19T08:12:07;14.80;99.90
60309;DHT22;50313;52.894;6.492;2023-09-19T08:14:36;14.80;99.90
60309;DHT22;50313;52.894;6.492;2023-09-19T08:17:03;14.80;99.90
60309;DHT22;50313;52.894;6.492;2023-09-19T08:19:31;14.90;99.90
60309;DHT22;50313;52.894;6.492;2023-09-19T08:22:00;15.00;99.90
60309;DHT22;50313;52.894;6.492;2023-09-19T08:24:29;15.10;99.90
60309;DHT22;50313;52.894;6.492;2023-09-19T08:26:56;15.20;99.90
60309;DHT22;50313;52.894;6.492;2023-09-19T08:29:23;15.30;99.90
60309;DHT22;50313;52.894;6.492;2023-09-19T08:31:56;15.40;99.90
60309;DHT22;50313;52.894;6.492;2023-09-19T08:34:26;15.50;99.90
60309;DHT22;50313;52.894;6.492;2023-09-19T08:36:55;15.40;99.90
60309;DHT22;50313;52.894;6.492;2023-09-19T08:39:24;15.40;99.90
60309;DHT22;50313;52.894;6.492;2023-09-19T08:42:00;15.60;99.90
60309;DHT22;50313;52.894;6.492;2023-09-19T08:44:27;15.60;99.90
60309;DHT22;50313;52.894;6.492;2023-09-19T08:47:10;15.70;99.90
60309;DHT22;50313;52.894;6.492;2023-09-19T08:50:13;15.90;99.90
60309;DHT22;50313;52.894;6.492;2023-09-19T08:52:43;16.00;99.90
60309;DHT22;50313;52.894;6.492;2023-09-19T08:55:14;16.00;99.90
60309;DHT22;50313;52.894;6.492;2023-09-19T08:57:46;16.10;99.90
60309;DHT22;50313;52.894;6.492;2023-09-19T09:00:15;16.30;99.90
60309;DHT22;50313;52.894;6.492;2023-09-19T09:02:47;16.30;99.90
60309;DHT22;50313;52.894;6.492;2023-09-19T09:05:14;16.40;99.90
60309;DHT22;50313;52.894;6.492;2023-09-19T09:07:42;16.30;99.90
60309;DHT22;50313;52.894;6.492;2023-09-19T09:10:10;16.40;99.90
60309;DHT22;50313;52.894;6.492;2023-09-19T09:12:35;16.50;99.90
60309;DHT22;50313;52.894;6.492;2023-09-19T09:15:03;16.60;99.90
60309;DHT22;50313;52.894;6.492;2023-09-19T09:17:30;16.70;99.90
60309;DHT22;50313;52.894;6.492;2023-09-19T09:19:56;16.70;99.90
60309;DHT22;50313;52.894;6.492;2023-09-19T09:22:22;16.90;99.90
60309;DHT22;50313;52.894;6.492;2023-09-19T09:24:56;17.00;99.90
60309;DHT22;50313;52.894;6.492;2023-09-19T09:27:30;17.10;99.90
60309;DHT22;50313;52.894;6.492;2023-09-19T09:29:57;17.10;99.90
60309;DHT22;50313;52.894;6.492;2023-09-19T09:32:30;17.20;99.90
60309;DHT22;50313;52.894;6.492;2023-09-19T09:35:00;17.10;99.90
60309;DHT22;50313;52.894;6.492;2023-09-19T09:37:26;17.30;99.90
60309;DHT22;50313;52.894;6.492;2023-09-19T09:39:55;17.40;99.90
60309;DHT22;50313;52.894;6.492;2023-09-19T09:42:35;17.40;99.90
60309;DHT22;50313;52.894;6.492;2023-09-19T09:45:13;17.50;99.90
60309;DHT22;50313;52.894;6.492;2023-09-19T09:47:47;17.50;99.90
60309;DHT22;50313;52.894;6.492;2023-09-19T09:50:32;17.60;99.90
60309;DHT22;50313;52.894;6.492;2023-09-19T09:53:03;17.50;99.90
60309;DHT22;50313;52.894;6.492;2023-09-19T09:56:07;17.50;99.90
60309;DHT22;50313;52.894;6.492;2023-09-19T09:58:51;17.50;99.90
60309;DHT22;50313;52.894;6.492;2023-09-19T10:01:21;17.50;99.90
60309;DHT22;50313;52.894;6.492;2023-09-19T10:03:57;17.60;99.90
60309;DHT22;50313;52.894;6.492;2023-09-19T10:06:23;17.60;99.90
60309;DHT22;50313;52.894;6.492;2023-09-19T10:09:06;17.70;99.90
60309;DHT22;50313;52.894;6.492;2023-09-19T10:12:06;17.80;99.90
60309;DHT22;50313;52.894;6.492;2023-09-19T10:14:37;17.80;99.90
60309;DHT22;50313;52.894;6.492;2023-09-19T10:17:05;17.90;99.90
60309;DHT22;50313;52.894;6.492;2023-09-19T10:19:45;17.80;99.90
60309;DHT22;50313;52.894;6.492;2023-09-19T10:22:14;17.70;99.90
60309;DHT22;50313;52.894;6.492;2023-09-19T10:24:43;18.00;99.90
60309;DHT22;50313;52.894;6.492;2023-09-19T10:27:12;18.10;99.90
60309;DHT22;50313;52.894;6.492;2023-09-19T10:29:39;17.90;99.90
60309;DHT22;50313;52.894;6.492;2023-09-19T10:32:06;18.00;99.90
60309;DHT22;50313;52.894;6.492;2023-09-19T10:34:35;17.90;99.90
60309;DHT22;50313;52.894;6.492;2023-09-19T10:37:02;17.90;99.90
60309;DHT22;50313;52.894;6.492;2023-09-19T10:39:32;17.90;99.90
60309;DHT22;50313;52.894;6.492;2023-09-19T10:42:02;18.10;99.90
60309;DHT22;50313;52.894;6.492;2023-09-19T10:44:32;18.20;99.90
60309;DHT22;50313;52.894;6.492;2023-09-19T10:46:59;18.30;99.90
60309;DHT22;50313;52.894;6.492;2023-09-19T10:49:25;18.30;99.90
60309;DHT22;50313;52.894;6.492;2023-09-19T10:51:57;18.20;99.90
60309;DHT22;50313;52.894;6.492;2023-09-19T10:54:30;18.40;99.90
60309;DHT22;50313;52.894;6.492;2023-09-19T10:56:59;18.30;99.90
60309;DHT22;50313;52.894;6.492;2023-09-19T10:59:26;18.40;99.90
60309;DHT22;50313;52.894;6.492;2023-09-19T11:02:16;18.40;99.90
60309;DHT22;50313;52.894;6.492;2023-09-19T11:04:43;18.50;99.90
60309;DHT22;50313;52.894;6.492;2023-09-19T11:07:14;18.60;99.90
60309;DHT22;50313;52.894;6.492;2023-09-19T11:09:51;18.60;99.90
60309;DHT22;50313;52.894;6.492;2023-09-19T11:15:07;18.60;99.90
60309;DHT22;50313;52.894;6.492;2023-09-19T11:17:34;18.60;99.90
60309;DHT22;50313;52.894;6.492;2023-09-19T11:30:48;19.00;99.90
60309;DHT22;50313;52.894;6.492;2023-09-19T11:33:27;18.80;99.90
60309;DHT22;50313;52.894;6.492;2023-09-19T11:36:10;19.00;99.90
60309;DHT22;50313;52.894;6.492;2023-09-19T11:46:18;18.90;99.90
60309;DHT22;50313;52.894;6.492;2023-09-19T11:48:54;18.90;99.90
60309;DHT22;50313;52.894;6.492;2023-09-19T11:51:24;19.00;99.90
60309;DHT22;50313;52.894;6.492;2023-09-19T11:53:56;18.90;99.90
60309;DHT22;50313;52.894;6.492;2023-09-19T11:56:26;18.80;99.90
60309;DHT22;50313;52.894;6.492;2023-09-19T11:58:57;18.70;99.90
60309;DHT22;50313;52.894;6.492;2023-09-19T12:01:32;18.70;99.90
60309;DHT22;50313;52.894;6.492;2023-09-19T12:04:01;18.60;99.90
60309;DHT22;50313;52.894;6.492;2023-09-19T12:06:30;18.70;99.90
60309;DHT22;50313;52.894;6.492;2023-09-19T12:08:58;18.60;99.90
60309;DHT22;50313;52.894;6.492;2023-09-19T12:11:28;18.50;99.90
60309;DHT22;50313;52.894;6.492;2023-09-19T12:13:56;18.40;99.90
60309;DHT22;50313;52.894;6.492;2023-09-19T12:16:25;18.20;99.90
60309;DHT22;50313;52.894;6.492;2023-09-19T12:18:55;18.20;99.90
60309;DHT22;50313;52.894;6.492;2023-09-19T12:21:27;18.20;99.90
60309;DHT22;50313;52.894;6.492;2023-09-19T12:26:28;18.20;99.90
60309;DHT22;50313;52.894;6.492;2023-09-19T12:28:55;18.20;99.90
60309;DHT22;50313;52.894;6.492;2023-09-19T12:31:22;18.20;99.90
60309;DHT22;50313;52.894;6.492;2023-09-19T12:33:53;18.30;99.90
60309;DHT22;50313;52.894;6.492;2023-09-19T12:36:24;18.50;99.90
60309;DHT22;50313;52.894;6.492;2023-09-19T12:39:00;18.50;99.90
60309;DHT22;50313;52.894;6.492;2023-09-19T12:41:26;18.50;99.90
60309;DHT22;50313;52.894;6.492;2023-09-19T12:43:53;18.50;99.90
60309;DHT22;50313;52.894;6.492;2023-09-19T12:46:22;18.50;99.90
60309;DHT22;50313;52.894;6.492;2023-09-19T12:49:17;18.50;99.90
60309;DHT22;50313;52.894;6.492;2023-09-19T12:51:43;18.40;99.90
60309;DHT22;50313;52.894;6.492;2023-09-19T12:54:09;18.40;99.90
60309;DHT22;50313;52.894;6.492;2023-09-19T12:56:41;18.30;99.90
60309;DHT22;50313;52.894;6.492;2023-09-19T12:59:13;18.30;99.90
60309;DHT22;50313;52.894;6.492;2023-09-19T13:01:40;18.30;99.90
60309;DHT22;50313;52.894;6.492;2023-09-19T13:04:21;18.30;99.90
60309;DHT22;50313;52.894;6.492;2023-09-19T13:06:55;18.30;99.90
60309;DHT22;50313;52.894;6.492;2023-09-19T13:09:27;18.30;99.90
60309;DHT22;50313;52.894;6.492;2023-09-19T13:12:05;18.30;99.90
60309;DHT22;50313;52.894;6.492;2023-09-19T13:15:10;18.30;99.90
60309;DHT22;50313;52.894;6.492;2023-09-19T13:17:49;18.20;99.90
60309;DHT22;50313;52.894;6.492;2023-09-19T13:20:25;18.20;99.90
60309;DHT22;50313;52.894;6.492;2023-09-19T13:22:55;18.20;99.90
60309;DHT22;50313;52.894;6.492;2023-09-19T13:25:26;18.30;99.90
60309;DHT22;50313;52.894;6.492;2023-09-19T13:27:57;18.30;99.90
60309;DHT22;50313;52.894;6.492;2023-09-19T13:30:24;18.30;99.90
60309;DHT22;50313;52.894;6.492;2023-09-19T13:32:51;18.30;99.90
60309;DHT22;50313;52.894;6.492;2023-09-19T13:35:18;18.40;99.90
60309;DHT22;50313;52.894;6.492;2023-09-19T13:37:45;18.40;99.90
60309;DHT22;50313;52.894;6.492;2023-09-19T13:40:15;18.30;99.90
60309;DHT22;50313;52.894;6.492;2023-09-19T13:42:41;18.30;99.90
60309;DHT22;50313;52.894;6.492;2023-09-19T13:45:08;18.30;99.90
60309;DHT22;50313;52.894;6.492;2023-09-19T13:47:38;18.30;99.90
60309;DHT22;50313;52.894;6.492;2023-09-19T13:50:04;18.30;99.90
60309;DHT22;50313;52.894;6.492;2023-09-19T13:52:31;18.30;99.90
60309;DHT22;50313;52.894;6.492;2023-09-19T13:54:57;18.30;99.90
60309;DHT22;50313;52.894;6.492;2023-09-19T13:57:24;18.30;99.90
60309;DHT22;50313;52.894;6.492;2023-09-19T13:59:50;18.30;99.90
60309;DHT22;50313;52.894;6.492;2023-09-19T14:02:17;18.40;99.90
60309;DHT22;50313;52.894;6.492;2023-09-19T14:04:44;18.40;99.90
60309;DHT22;50313;52.894;6.492;2023-09-19T14:07:10;18.50;99.90
60309;DHT22;50313;52.894;6.492;2023-09-19T14:09:36;18.60;99.90
60309;DHT22;50313;52.894;6.492;2023-09-19T14:12:03;18.60;99.90
60309;DHT22;50313;52.894;6.492;2023-09-19T14:14:29;18.60;99.90
60309;DHT22;50313;52.894;6.492;2023-09-19T14:16:54;18.50;99.90
60309;DHT22;50313;52.894;6.492;2023-09-19T14:19:20;18.50;99.90
60309;DHT22;50313;52.894;6.492;2023-09-19T14:21:46;18.60;99.90
60309;DHT22;50313;52.894;6.492;2023-09-19T14:24:17;18.60;99.90
60309;DHT22;50313;52.894;6.492;2023-09-19T14:26:43;18.60;99.90
60309;DHT22;50313;52.894;6.492;2023-09-19T14:29:09;18.60;99.90
60309;DHT22;50313;52.894;6.492;2023-09-19T14:31:38;18.50;99.90
60309;DHT22;50313;52.894;6.492;2023-09-19T14:34:06;18.50;99.90
60309;DHT22;50313;52.894;6.492;2023-09-19T14:36:32;18.50;99.90
60309;DHT22;50313;52.894;6.492;2023-09-19T14:38:59;18.50;99.90
60309;DHT22;50313;52.894;6.492;2023-09-19T14:41:25;18.50;99.90
60309;DHT22;50313;52.894;6.492;2023-09-19T14:43:52;18.50;99.90
60309;DHT22;50313;52.894;6.492;2023-09-19T14:46:18;18.50;99.90
60309;DHT22;50313;52.894;6.492;2023-09-19T14:48:45;18.50;99.90
60309;DHT22;50313;52.894;6.492;2023-09-19T14:51:14;18.40;99.90
60309;DHT22;50313;52.894;6.492;2023-09-19T14:53:42;18.40;99.90
60309;DHT22;50313;52.894;6.492;2023-09-19T14:56:09;18.40;99.90
60309;DHT22;50313;52.894;6.492;2023-09-19T14:58:35;18.30;99.90
60309;DHT22;50313;52.894;6.492;2023-09-19T15:01:03;18.30;99.90
60309;DHT22;50313;52.894;6.492;2023-09-19T15:03:29;18.40;99.90
60309;DHT22;50313;52.894;6.492;2023-09-19T15:06:02;18.30;99.90
60309;DHT22;50313;52.894;6.492;2023-09-19T15:08:30;18.30;99.90
60309;DHT22;50313;52.894;6.492;2023-09-19T15:10:56;18.20;99.90
60309;DHT22;50313;52.894;6.492;2023-09-19T15:13:24;18.10;99.90
60309;DHT22;50313;52.894;6.492;2023-09-19T15:16:02;17.70;99.90
60309;DHT22;50313;52.894;6.492;2023-09-19T15:18:29;17.50;99.90
60309;DHT22;50313;52.894;6.492;2023-09-19T15:21:02;17.40;99.90
60309;DHT22;50313;52.894;6.492;2023-09-19T15:23:30;17.40;99.90
60309;DHT22;50313;52.894;6.492;2023-09-19T15:25:56;17.50;99.90
60309;DHT22;50313;52.894;6.492;2023-09-19T15:28:22;17.60;99.90
60309;DHT22;50313;52.894;6.492;2023-09-19T15:30:49;17.60;99.90
60309;DHT22;50313;52.894;6.492;2023-09-19T15:33:15;17.70;99.90
60309;DHT22;50313;52.894;6.492;2023-09-19T15:35:41;17.70;99.90
60309;DHT22;50313;52.894;6.492;2023-09-19T15:38:07;17.80;99.90
60309;DHT22;50313;52.894;6.492;2023-09-19T15:40:33;17.70;99.90
60309;DHT22;50313;52.894;6.492;2023-09-19T15:42:59;17.60;99.90
60309;DHT22;50313;52.894;6.492;2023-09-19T15:45:28;17.60;99.90
60309;DHT22;50313;52.894;6.492;2023-09-19T15:47:54;17.50;99.90
60309;DHT22;50313;52.894;6.492;2023-09-19T15:50:20;17.50;99.90
60309;DHT22;50313;52.894;6.492;2023-09-19T15:52:53;17.50;99.90
60309;DHT22;50313;52.894;6.492;2023-09-19T15:55:21;17.50;99.90
60309;DHT22;50313;52.894;6.492;2023-09-19T15:57:47;17.60;99.90
60309;DHT22;50313;52.894;6.492;2023-09-19T16:00:14;17.60;99.90
60309;DHT22;50313;52.894;6.492;2023-09-19T16:02:44;17.60;99.90
60309;DHT22;50313;52.894;6.492;2023-09-19T16:05:10;17.50;99.90
60309;DHT22;50313;52.894;6.492;2023-09-19T16:07:37;17.50;99.90
60309;DHT22;50313;52.894;6.492;2023-09-19T16:10:04;17.50;99.90
60309;DHT22;50313;52.894;6.492;2023-09-19T16:12:30;17.50;99.90
60309;DHT22;50313;52.894;6.492;2023-09-19T16:14:56;17.30;99.90
60309;DHT22;50313;52.894;6.492;2023-09-19T16:17:22;17.20;99.90
60309;DHT22;50313;52.894;6.492;2023-09-19T16:19:47;16.90;99.90
60309;DHT22;50313;52.894;6.492;2023-09-19T16:22:13;16.70;99.90
60309;DHT22;50313;52.894;6.492;2023-09-19T16:24:39;16.60;99.90
60309;DHT22;50313;52.894;6.492;2023-09-19T16:27:05;16.40;99.90
60309;DHT22;50313;52.894;6.492;2023-09-19T16:29:31;16.30;99.90